South Lake Tahoe Airport

About

Name: South Lake Tahoe Airport
Identifier:  TVL/KTVL
Owner:  The City of South Lake Tahoe
Public/Private:  Public
Local Time:  26. Jan 18:13 PST
Description: Lake Tahoe Airport is a public airport three miles southwest of South Lake Tahoe, in El Dorado County, California. This general aviation airport covers 348 acres and has one runway. The airport is sometimes called Tahoe Valley Airport.
Source: Wikipedia

Location

South Lake Tahoe Airport

Runways
Identifier Length (m/ft) Surface
18/36 2,603/8,541 Asphalt

Statistics

Flights Per Day:
0 Flights
Distance: 538km (334mi)
Flights Delayed:
0% (0 Flights/Day Delayed)
Average Delay: 51 minutes

Current Weather

 -1 C (Humidity: 92%)
  0kt (0km/h / 0mph) from 0°
  16km (10 mi.)
 METAR KTVL 270153Z AUTO 00000KT 10SM CLR M01/M02 A3022 RMK AO2 SLP226 T10061022

Claim Compensation

Claim compensation for your flight delay or cancellation
Flight delays happen, but that doesn’t mean you have to accept them. You may be entitled to as much as €600/$700 in compensation if your flight has been delayed, canceled or overbooked within the last three years.

Current Delays

Departures

N/A

Arrivals

N/A

Destinations

Map

Top Destinations

Airport Flights
per week
Seats
per week
  San Luis Obispo (SBP) 0 - 0 0

Airlines & Planes

Top Airlines

Airline Flights
per day
Seats
per day
Gama Aviation 0 -

Top Models

model Flights seats
Beech B300 Super King Air 350 0.0/day - 0